Time;durP1;ratioP1;P1;durP2;ratioP2;P2;SDS_P1;SDS_P2;PMS_P1;PMS_P2;Temp;Humidity;BMP_temperature;BMP_pressure;BME280_temperature;BME280_humidity;BME280_pressure;Samples;Min_cycle;Max_cycle;Signal;HPM_P1;HPM_P2
2024/04/13 00:02:16;;;;;;;12.15;7.18;;;13.00;99.90;;;;;;5550495;25;20071;-47
2024/04/13 00:04:43;;;;;;;12.77;6.97;;;13.00;99.90;;;;;;5544860;25;20032;-45
2024/04/13 00:07:10;;;;;;;10.23;7.00;;;13.00;99.90;;;;;;5544967;25;20004;-46
2024/04/13 00:09:37;;;;;;;10.80;7.40;;;12.90;99.90;;;;;;5559251;25;20004;-48
2024/04/13 00:12:04;;;;;;;9.20;7.18;;;12.90;99.90;;;;;;5544343;25;20056;-46
2024/04/13 00:14:33;;;;;;;8.57;6.82;;;12.90;99.90;;;;;;5537802;25;20435;-47
2024/04/13 00:17:01;;;;;;;8.55;6.00;;;12.90;99.90;;;;;;5558008;25;20354;-45
2024/04/13 00:19:28;;;;;;;12.85;6.72;;;12.90;99.90;;;;;;5544646;25;20005;-47
2024/04/13 00:22:00;;;;;;;11.25;6.90;;;12.80;99.90;;;;;;5553307;25;20015;-44
2024/04/13 00:24:27;;;;;;;10.70;6.95;;;12.80;99.90;;;;;;5543464;25;20019;-47
2024/04/13 00:26:54;;;;;;;9.48;6.10;;;12.80;99.90;;;;;;5547208;25;20003;-49
2024/04/13 00:29:22;;;;;;;10.90;6.82;;;12.80;99.90;;;;;;5549381;25;20001;-47
2024/04/13 00:31:49;;;;;;;10.30;6.20;;;12.70;99.90;;;;;;5526063;25;20004;-51
2024/04/13 00:34:16;;;;;;;7.88;6.40;;;12.70;99.90;;;;;;5555485;25;20377;-48
2024/04/13 00:36:45;;;;;;;8.25;6.43;;;12.70;99.90;;;;;;5560700;25;20349;-46
2024/04/13 00:39:12;;;;;;;8.07;6.63;;;12.70;99.90;;;;;;5541391;25;20410;-48
2024/04/13 00:41:40;;;;;;;12.10;7.45;;;12.70;99.90;;;;;;5551931;25;20004;-49
2024/04/13 00:44:07;;;;;;;13.27;7.25;;;12.60;99.90;;;;;;5565216;25;20001;-45
2024/04/13 00:46:34;;;;;;;10.30;7.47;;;12.60;99.90;;;;;;5547461;25;20020;-48
2024/04/13 00:49:10;;;;;;;9.98;7.38;;;12.60;99.90;;;;;;5544602;25;20072;-47
2024/04/13 00:51:41;;;;;;;11.65;7.63;;;12.60;99.90;;;;;;5545075;25;20050;-46
2024/04/13 00:54:09;;;;;;;10.65;7.22;;;12.60;99.90;;;;;;5553880;25;20005;-45
2024/04/13 00:56:36;;;;;;;13.35;8.43;;;12.50;99.90;;;;;;5549884;25;20016;-47
2024/04/13 00:59:08;;;;;;;10.97;8.63;;;12.50;99.90;;;;;;5553585;25;20493;-47
2024/04/13 01:01:36;;;;;;;14.75;8.90;;;12.50;99.90;;;;;;5550435;25;20288;-46
2024/04/13 01:04:04;;;;;;;12.05;8.60;;;12.50;99.90;;;;;;5553149;25;20020;-47
2024/04/13 01:06:32;;;;;;;12.70;8.60;;;12.40;99.90;;;;;;5534824;25;20098;-44
2024/04/13 01:09:00;;;;;;;13.18;8.95;;;12.40;99.90;;;;;;5551422;25;20028;-50
2024/04/13 01:11:29;;;;;;;12.13;7.72;;;12.40;99.90;;;;;;5547038;25;19997;-47
2024/04/13 01:13:57;;;;;;;11.50;7.97;;;12.30;99.90;;;;;;5548498;25;20024;-45
2024/04/13 01:16:28;;;;;;;13.52;7.88;;;12.30;99.90;;;;;;5543601;25;20000;-50
2024/04/13 01:18:56;;;;;;;12.52;7.93;;;12.30;99.90;;;;;;5541143;25;20112;-48
2024/04/13 01:21:23;;;;;;;11.27;7.68;;;12.20;99.90;;;;;;5550289;25;20000;-44
2024/04/13 01:24:05;;;;;;;11.52;7.95;;;12.20;99.90;;;;;;5544579;25;20462;-50
2024/04/13 01:26:39;;;;;;;11.75;7.55;;;12.10;99.90;;;;;;5548608;25;20064;-47
2024/04/13 01:29:09;;;;;;;12.27;8.00;;;12.10;99.90;;;;;;5550851;25;20001;-47
2024/04/13 01:31:37;;;;;;;11.13;7.68;;;12.10;99.90;;;;;;5543897;25;20124;-54
2024/04/13 01:34:05;;;;;;;11.00;7.95;;;12.10;99.90;;;;;;5544851;25;20001;-47
2024/04/13 01:36:40;;;;;;;12.75;8.15;;;12.10;99.90;;;;;;5549724;25;20470;-45
2024/04/13 01:39:08;;;;;;;9.80;7.30;;;12.10;99.90;;;;;;5542829;25;20014;-46
2024/04/13 01:41:40;;;;;;;10.40;7.60;;;12.10;99.90;;;;;;5546858;25;20000;-47
2024/04/13 01:44:07;;;;;;;11.38;7.68;;;12.10;99.90;;;;;;5545374;25;20001;-49
2024/04/13 01:46:35;;;;;;;10.90;8.00;;;12.10;99.90;;;;;;5549064;25;20458;-48
2024/04/13 01:49:05;;;;;;;11.02;7.53;;;12.00;99.90;;;;;;5541327;25;20026;-44
2024/04/13 01:51:35;;;;;;;13.45;7.88;;;12.00;99.90;;;;;;5533073;25;20012;-47
2024/04/13 01:54:03;;;;;;;11.38;7.90;;;12.00;99.90;;;;;;5543080;25;20008;-45
2024/04/13 01:56:30;;;;;;;9.93;7.35;;;12.00;99.90;;;;;;5546986;25;20549;-46
2024/04/13 01:58:58;;;;;;;10.48;7.78;;;11.90;99.90;;;;;;5549500;25;20385;-49
2024/04/13 02:01:25;;;;;;;9.75;6.95;;;11.90;99.90;;;;;;5548873;25;20472;-44
2024/04/13 02:03:52;;;;;;;10.50;7.07;;;11.90;99.90;;;;;;5548799;25;20012;-48
2024/04/13 02:06:19;;;;;;;12.43;6.80;;;11.90;99.90;;;;;;5545210;25;20794;-50
2024/04/13 02:08:46;;;;;;;11.65;6.88;;;11.80;99.90;;;;;;5548332;25;20047;-47
2024/04/13 02:11:13;;;;;;;9.63;6.82;;;11.80;99.90;;;;;;5550945;25;20015;-48
2024/04/13 02:13:40;;;;;;;10.43;7.30;;;11.80;99.90;;;;;;5545956;25;20092;-47
2024/04/13 02:16:08;;;;;;;14.25;7.47;;;11.70;99.90;;;;;;5547820;25;20001;-50
2024/04/13 02:18:37;;;;;;;10.93;7.18;;;11.70;99.90;;;;;;5541473;25;20252;-49
2024/04/13 02:21:05;;;;;;;11.27;6.82;;;11.70;99.90;;;;;;5543532;25;20001;-47
2024/04/13 02:23:33;;;;;;;9.13;7.07;;;11.70;99.90;;;;;;5529785;25;20443;-44
2024/04/13 02:26:01;;;;;;;10.65;7.18;;;11.60;99.90;;;;;;5548584;25;20001;-46
2024/04/13 02:28:28;;;;;;;9.48;6.18;;;11.60;99.90;;;;;;5538070;25;20078;-49
2024/04/13 02:30:55;;;;;;;11.63;6.97;;;11.50;99.90;;;;;;5541849;25;20462;-46
2024/04/13 02:33:22;;;;;;;11.75;7.38;;;11.50;99.90;;;;;;5533932;25;20167;-50
2024/04/13 02:36:00;;;;;;;10.20;6.85;;;11.40;99.90;;;;;;5545515;25;20019;-48
2024/04/13 02:38:28;;;;;;;7.63;6.65;;;11.40;99.90;;;;;;5534398;25;20008;-45
2024/04/13 02:40:56;;;;;;;9.55;7.57;;;11.40;99.90;;;;;;5563683;25;19999;-49
2024/04/13 02:43:24;;;;;;;11.15;7.60;;;11.30;99.90;;;;;;5550628;25;20000;-50
2024/04/13 02:45:51;;;;;;;11.43;7.53;;;11.30;99.90;;;;;;5553113;25;20004;-49
2024/04/13 02:48:20;;;;;;;11.98;7.38;;;11.30;99.90;;;;;;5549623;25;20005;-47
2024/04/13 02:50:48;;;;;;;11.57;6.93;;;11.20;99.90;;;;;;5559797;25;20004;-47
2024/04/13 02:53:15;;;;;;;8.98;6.90;;;11.20;99.90;;;;;;5549247;25;20000;-47
2024/04/13 02:55:42;;;;;;;9.38;7.03;;;11.20;99.90;;;;;;5558430;25;20539;-47
2024/04/13 02:58:09;;;;;;;11.98;7.05;;;11.10;99.90;;;;;;5550214;25;20032;-51
2024/04/13 03:00:36;;;;;;;9.88;7.05;;;11.10;99.90;;;;;;5557201;25;20004;-47
2024/04/13 03:03:04;;;;;;;7.53;6.75;;;11.10;99.90;;;;;;5516464;25;20034;-49
2024/04/13 03:05:31;;;;;;;7.90;6.80;;;11.10;99.90;;;;;;5551865;25;20400;-51
2024/04/13 03:07:58;;;;;;;9.63;7.18;;;11.00;99.90;;;;;;5548913;25;19997;-49
2024/04/13 03:10:25;;;;;;;10.15;6.65;;;11.00;99.90;;;;;;5519972;25;20008;-51
2024/04/13 03:12:53;;;;;;;8.25;7.15;;;11.00;99.90;;;;;;5548311;25;20012;-46
2024/04/13 03:15:20;;;;;;;9.82;7.43;;;11.00;99.90;;;;;;5553391;25;20004;-45
2024/04/13 03:17:48;;;;;;;11.35;6.85;;;10.90;99.90;;;;;;5563909;25;20000;-48
2024/04/13 03:20:15;;;;;;;10.57;7.05;;;10.90;99.90;;;;;;5550183;25;20025;-47
2024/04/13 03:22:42;;;;;;;9.40;6.95;;;10.90;99.90;;;;;;5559863;25;20389;-48
2024/04/13 03:25:09;;;;;;;8.88;6.43;;;10.90;99.90;;;;;;5557895;25;20001;-50
2024/04/13 03:27:36;;;;;;;12.18;7.00;;;10.90;99.90;;;;;;5554968;25;20352;-51
2024/04/13 03:30:04;;;;;;;9.02;6.97;;;10.90;99.90;;;;;;5541670;25;20509;-47
2024/04/13 03:32:31;;;;;;;12.50;6.60;;;10.90;99.90;;;;;;5559586;25;20010;-45
2024/04/13 03:34:58;;;;;;;8.90;7.25;;;10.80;99.90;;;;;;5549609;25;20431;-49
2024/04/13 03:37:25;;;;;;;9.55;7.10;;;10.80;99.90;;;;;;5567973;25;20357;-46
2024/04/13 03:39:52;;;;;;;15.57;7.53;;;10.80;99.90;;;;;;5544863;25;20004;-48
2024/04/13 03:42:20;;;;;;;9.85;7.40;;;10.70;99.90;;;;;;5555921;25;20013;-47
2024/04/13 03:44:49;;;;;;;12.02;7.43;;;10.70;99.90;;;;;;5550095;25;20012;-45
2024/04/13 03:47:17;;;;;;;10.35;6.85;;;10.70;99.90;;;;;;5544528;25;20011;-46
2024/04/13 03:49:44;;;;;;;7.88;6.40;;;10.70;99.90;;;;;;5547482;25;21425;-55
2024/04/13 03:52:12;;;;;;;8.70;6.47;;;10.60;99.90;;;;;;5552901;25;19997;-49
2024/04/13 03:54:40;;;;;;;9.55;7.20;;;10.60;99.90;;;;;;5556864;25;20005;-48
2024/04/13 03:57:08;;;;;;;9.10;7.30;;;10.60;99.90;;;;;;5558620;25;20021;-51
2024/04/13 03:59:35;;;;;;;9.68;6.93;;;10.60;99.90;;;;;;5548336;25;20019;-43
2024/04/13 04:02:03;;;;;;;10.90;7.07;;;10.60;99.90;;;;;;5559767;25;20002;-48
2024/04/13 04:04:30;;;;;;;9.82;7.65;;;10.60;99.90;;;;;;5549074;25;20017;-50
2024/04/13 04:06:58;;;;;;;10.68;8.00;;;10.60;99.90;;;;;;5565267;25;20012;-48
2024/04/13 04:09:25;;;;;;;11.20;8.38;;;10.50;99.90;;;;;;5545501;25;20011;-51
2024/04/13 04:11:52;;;;;;;13.88;7.88;;;10.50;99.90;;;;;;5555122;25;20004;-47
2024/04/13 04:14:19;;;;;;;9.48;7.22;;;10.50;99.90;;;;;;5553631;25;20438;-48
2024/04/13 04:16:46;;;;;;;11.98;7.75;;;10.50;99.90;;;;;;5553526;25;20333;-47
2024/04/13 04:19:13;;;;;;;9.85;7.55;;;10.50;99.90;;;;;;5546567;25;20353;-49
2024/04/13 04:21:40;;;;;;;10.93;8.05;;;10.50;99.90;;;;;;5557485;25;20012;-46
2024/04/13 04:24:07;;;;;;;8.77;7.15;;;10.50;99.90;;;;;;5563233;25;20079;-48
2024/04/13 04:26:34;;;;;;;9.25;6.70;;;10.60;99.90;;;;;;5546458;25;20009;-44
2024/04/13 04:29:02;;;;;;;15.60;7.85;;;10.50;99.90;;;;;;5553251;25;20000;-51
2024/04/13 04:31:29;;;;;;;13.38;7.25;;;10.50;99.90;;;;;;5559962;25;20362;-46
2024/04/13 04:33:56;;;;;;;11.52;7.40;;;10.50;99.90;;;;;;5541925;25;20055;-48
2024/04/13 04:36:23;;;;;;;11.52;7.85;;;10.50;99.90;;;;;;5559141;25;20429;-49
2024/04/13 04:38:50;;;;;;;11.40;7.60;;;10.50;99.90;;;;;;5526725;25;20356;-51
2024/04/13 04:41:17;;;;;;;9.77;7.18;;;10.60;99.90;;;;;;5565968;25;20020;-45
2024/04/13 04:43:44;;;;;;;10.68;7.60;;;10.60;99.90;;;;;;5555097;25;20032;-48
2024/04/13 04:46:11;;;;;;;9.35;7.25;;;10.60;99.90;;;;;;5548092;25;20447;-47
2024/04/13 04:48:38;;;;;;;8.52;7.60;;;10.60;99.90;;;;;;5552414;25;20000;-50
2024/04/13 04:51:05;;;;;;;11.15;9.00;;;10.70;99.90;;;;;;5548157;25;20076;-49
2024/04/13 04:53:32;;;;;;;10.43;8.18;;;10.80;99.90;;;;;;5546849;25;20299;-51
2024/04/13 04:55:59;;;;;;;11.20;8.32;;;10.80;99.90;;;;;;5550657;25;20001;-47
2024/04/13 04:58:26;;;;;;;12.90;8.23;;;10.80;99.90;;;;;;5554631;25;20532;-46
2024/04/13 05:00:53;;;;;;;9.55;7.63;;;10.90;99.90;;;;;;5533225;25;20124;-47
2024/04/13 05:03:21;;;;;;;12.70;7.60;;;11.00;99.90;;;;;;5557374;25;19997;-49
2024/04/13 05:05:49;;;;;;;11.13;7.60;;;11.00;99.90;;;;;;5547411;25;20453;-46
2024/04/13 05:08:16;;;;;;;11.07;8.30;;;11.10;99.90;;;;;;5552288;25;20458;-47
2024/04/13 05:10:43;;;;;;;9.80;6.90;;;11.20;99.90;;;;;;5547504;25;20487;-45
2024/04/13 05:13:10;;;;;;;11.95;8.32;;;11.20;99.90;;;;;;5548984;25;20529;-45
2024/04/13 05:15:38;;;;;;;15.25;8.88;;;11.30;99.90;;;;;;5551183;25;20001;-48
2024/04/13 05:18:05;;;;;;;11.43;7.43;;;11.20;99.90;;;;;;5549237;25;19996;-49
2024/04/13 05:20:33;;;;;;;10.02;7.10;;;11.30;99.90;;;;;;5548115;25;20012;-46
2024/04/13 05:23:01;;;;;;;10.75;7.15;;;11.30;99.90;;;;;;5549740;25;20008;-46
2024/04/13 05:25:28;;;;;;;13.50;7.13;;;11.40;99.90;;;;;;5544282;25;20001;-46
2024/04/13 05:27:55;;;;;;;11.30;7.57;;;11.50;99.90;;;;;;5556902;25;20065;-49
2024/04/13 05:30:22;;;;;;;11.15;7.85;;;11.50;99.90;;;;;;5553016;25;20053;-52
2024/04/13 05:32:50;;;;;;;10.10;7.07;;;11.60;99.90;;;;;;5530794;25;20015;-48
2024/04/13 05:35:18;;;;;;;12.95;7.60;;;11.70;99.90;;;;;;5551008;25;20024;-48
2024/04/13 05:37:46;;;;;;;14.82;7.25;;;11.70;99.90;;;;;;5541496;25;20012;-46
2024/04/13 05:40:15;;;;;;;10.60;7.53;;;11.90;99.90;;;;;;5538192;25;20528;-47
2024/04/13 05:42:42;;;;;;;11.68;7.45;;;12.00;99.90;;;;;;5556924;25;20011;-47
2024/04/13 05:45:10;;;;;;;16.23;8.15;;;12.10;99.90;;;;;;5539632;25;20037;-46
2024/04/13 05:47:37;;;;;;;12.82;6.78;;;12.20;99.90;;;;;;5541627;25;20022;-48
2024/04/13 05:50:04;;;;;;;10.35;7.72;;;12.30;99.90;;;;;;5539916;25;20049;-47
2024/04/13 05:52:32;;;;;;;11.65;6.95;;;12.40;99.90;;;;;;5544554;25;20001;-44
2024/04/13 05:54:59;;;;;;;10.88;7.38;;;12.50;99.90;;;;;;5553618;25;20378;-44
2024/04/13 05:57:29;;;;;;;15.10;8.05;;;12.50;99.90;;;;;;5545896;25;20008;-46
2024/04/13 05:59:57;;;;;;;9.45;7.63;;;12.70;99.90;;;;;;5545349;25;20056;-44
2024/04/13 06:02:26;;;;;;;8.40;7.18;;;12.60;99.90;;;;;;5551617;25;20039;-44
2024/04/13 06:04:54;;;;;;;12.20;7.60;;;12.60;99.90;;;;;;5540877;25;19996;-45
2024/04/13 06:07:21;;;;;;;12.75;7.72;;;12.70;99.90;;;;;;5544864;25;20004;-48
2024/04/13 06:09:48;;;;;;;13.15;8.10;;;12.70;99.90;;;;;;5550362;25;20111;-49
2024/04/13 06:12:15;;;;;;;10.38;7.80;;;12.70;99.90;;;;;;5548153;25;20005;-46
2024/04/13 06:14:45;;;;;;;11.30;7.78;;;12.70;99.90;;;;;;5546019;25;19993;-47
2024/04/13 06:17:12;;;;;;;8.85;7.95;;;12.80;99.90;;;;;;5545062;25;20035;-47
2024/04/13 06:19:40;;;;;;;10.60;7.55;;;12.80;99.90;;;;;;5559962;25;20349;-42
2024/04/13 06:22:10;;;;;;;13.20;7.50;;;12.80;99.90;;;;;;5542589;25;20013;-49
2024/04/13 06:24:37;;;;;;;10.27;7.93;;;12.90;99.90;;;;;;5545316;25;20457;-46
2024/04/13 06:27:05;;;;;;;10.60;8.63;;;13.00;99.90;;;;;;5545822;25;20001;-44
2024/04/13 06:29:32;;;;;;;10.45;7.32;;;13.00;99.90;;;;;;5554284;25;20016;-45
2024/04/13 06:31:59;;;;;;;10.15;7.65;;;13.00;99.90;;;;;;5552754;25;20020;-46
2024/04/13 06:34:26;;;;;;;10.90;7.20;;;13.10;99.90;;;;;;5553261;25;20000;-47
2024/04/13 06:36:54;;;;;;;9.73;7.47;;;13.20;99.90;;;;;;5541453;25;20035;-49
2024/04/13 06:39:21;;;;;;;9.52;7.45;;;13.20;99.90;;;;;;5538923;25;20003;-46
2024/04/13 06:41:48;;;;;;;11.50;8.32;;;13.20;99.90;;;;;;5539905;25;20389;-45
2024/04/13 06:44:15;;;;;;;12.30;7.70;;;13.30;99.90;;;;;;5546703;25;20008;-45
2024/04/13 06:46:42;;;;;;;11.52;7.47;;;13.30;99.90;;;;;;5545993;25;20017;-48
2024/04/13 06:49:09;;;;;;;11.10;7.93;;;13.40;99.90;;;;;;5546924;25;20122;-52
2024/04/13 06:51:36;;;;;;;13.35;9.02;;;13.60;99.90;;;;;;5543984;25;20462;-49
2024/04/13 06:54:04;;;;;;;11.30;7.72;;;13.70;99.90;;;;;;5537361;25;20024;-47
2024/04/13 06:56:31;;;;;;;11.93;7.93;;;13.90;99.90;;;;;;5535027;25;20483;-46
2024/04/13 06:58:58;;;;;;;8.68;7.53;;;14.00;99.90;;;;;;5535738;25;20469;-45
2024/04/13 07:01:27;;;;;;;10.65;7.90;;;14.00;99.90;;;;;;5524777;25;20000;-43
2024/04/13 07:03:56;;;;;;;10.88;7.72;;;14.10;99.90;;;;;;5534540;25;20013;-46
2024/04/13 07:06:25;;;;;;;9.98;7.60;;;14.10;99.90;;;;;;5537599;25;20040;-46
2024/04/13 07:08:52;;;;;;;11.40;7.25;;;14.10;99.90;;;;;;5549658;25;20393;-43
2024/04/13 07:11:20;;;;;;;8.38;6.90;;;14.20;99.90;;;;;;5547919;25;20005;-46
2024/04/13 07:13:47;;;;;;;8.95;6.60;;;14.50;99.90;;;;;;5536759;25;20330;-44
2024/04/13 07:16:14;;;;;;;9.43;7.20;;;14.60;99.90;;;;;;5543634;25;20033;-49
2024/04/13 07:18:41;;;;;;;12.13;7.47;;;14.80;99.90;;;;;;5535557;25;20031;-47
2024/04/13 07:21:09;;;;;;;11.40;7.55;;;15.00;99.90;;;;;;5543350;25;20005;-45
2024/04/13 07:23:36;;;;;;;10.93;7.85;;;15.10;99.90;;;;;;5543711;25;20591;-46
2024/04/13 07:26:04;;;;;;;11.90;7.40;;;15.10;99.90;;;;;;5549917;25;20639;-47
2024/04/13 07:28:32;;;;;;;9.85;7.07;;;15.10;99.90;;;;;;5552424;25;20041;-45
2024/04/13 07:30:59;;;;;;;10.30;7.80;;;15.40;99.90;;;;;;5557256;25;20077;-49
2024/04/13 07:33:26;;;;;;;8.95;7.40;;;15.40;99.90;;;;;;5546660;25;20072;-45
2024/04/13 07:35:53;;;;;;;8.70;7.22;;;15.50;99.90;;;;;;5550532;25;20457;-44
2024/04/13 07:38:21;;;;;;;10.35;7.60;;;15.60;99.90;;;;;;5549476;25;20013;-46
2024/04/13 07:40:48;;;;;;;7.95;7.13;;;15.80;99.90;;;;;;5545700;25;20043;-45
2024/04/13 07:43:15;;;;;;;13.25;8.27;;;15.90;99.90;;;;;;5536207;25;20015;-45
2024/04/13 07:45:43;;;;;;;12.00;7.55;;;16.00;99.90;;;;;;5552550;25;20015;-50
2024/04/13 07:48:10;;;;;;;13.00;10.05;;;16.10;99.90;;;;;;5541429;25;20015;-49
2024/04/13 07:50:38;;;;;;;15.30;9.95;;;16.10;99.90;;;;;;5552150;25;20049;-49
2024/04/13 07:53:05;;;;;;;10.07;8.48;;;16.00;99.90;;;;;;5541604;25;20012;-43
2024/04/13 07:55:32;;;;;;;9.35;7.68;;;16.10;99.90;;;;;;5549216;25;20005;-45
2024/04/13 07:57:59;;;;;;;9.90;7.80;;;16.20;99.90;;;;;;5553603;25;20076;-45
2024/04/13 08:00:26;;;;;;;8.48;6.93;;;16.30;99.90;;;;;;5533482;25;20376;-49
2024/04/13 08:02:53;;;;;;;9.15;7.38;;;16.30;99.90;;;;;;5514278;25;20656;-47
2024/04/13 08:05:20;;;;;;;9.20;7.93;;;16.40;99.90;;;;;;5538378;25;20437;-50
2024/04/13 08:07:47;;;;;;;9.65;7.70;;;16.60;99.90;;;;;;5540869;25;20001;-47
2024/04/13 08:10:14;;;;;;;9.02;7.20;;;16.70;99.90;;;;;;5539769;25;20045;-51
2024/04/13 08:12:41;;;;;;;8.32;7.18;;;16.70;99.90;;;;;;5537537;25;19997;-48
2024/04/13 08:15:10;;;;;;;10.02;7.35;;;16.70;99.90;;;;;;5552578;25;20016;-50
2024/04/13 08:17:38;;;;;;;10.48;8.02;;;16.80;99.90;;;;;;5538501;25;20012;-49
2024/04/13 08:20:08;;;;;;;14.48;7.30;;;17.00;99.90;;;;;;5541917;25;20069;-48
2024/04/13 08:22:37;;;;;;;8.27;7.13;;;16.90;99.90;;;;;;5542261;25;20370;-48
2024/04/13 08:25:04;;;;;;;8.00;7.20;;;17.20;99.90;;;;;;5553431;25;20004;-46
2024/04/13 08:27:33;;;;;;;7.95;6.65;;;17.40;99.90;;;;;;5548165;25;19997;-44
2024/04/13 08:30:01;;;;;;;9.70;7.50;;;17.60;99.90;;;;;;5538956;25;20002;-47
2024/04/13 08:32:28;;;;;;;9.73;7.93;;;17.80;99.90;;;;;;5533580;25;20106;-50
2024/04/13 08:34:55;;;;;;;10.05;6.65;;;18.00;99.90;;;;;;5512570;25;20489;-47
2024/04/13 08:37:22;;;;;;;8.93;6.50;;;18.10;99.90;;;;;;5558326;25;20001;-46
2024/04/13 08:39:49;;;;;;;10.68;6.30;;;18.30;99.90;;;;;;5542300;25;20001;-47
2024/04/13 08:42:25;;;;;;;6.85;5.97;;;18.30;99.90;;;;;;5554351;25;20008;-47
2024/04/13 08:44:53;;;;;;;10.45;7.38;;;18.50;99.90;;;;;;5554984;25;20349;-43
2024/04/13 08:47:21;;;;;;;7.20;6.50;;;18.60;99.90;;;;;;5540291;25;20408;-44
2024/04/13 08:49:50;;;;;;;8.90;6.82;;;18.60;99.90;;;;;;5552056;25;20553;-46
2024/04/13 08:52:20;;;;;;;10.30;6.18;;;18.70;99.90;;;;;;5551909;25;20406;-50
2024/04/13 08:54:48;;;;;;;9.77;6.70;;;18.80;99.90;;;;;;5538896;25;20001;-50
2024/04/13 08:57:22;;;;;;;7.63;6.72;;;19.00;99.90;;;;;;5540069;25;20000;-50
2024/04/13 08:59:51;;;;;;;6.47;5.85;;;19.10;99.90;;;;;;5554744;25;19999;-52
2024/04/13 09:02:25;;;;;;;7.40;5.72;;;19.20;99.90;;;;;;5549998;25;20025;-49
2024/04/13 09:04:53;;;;;;;9.48;6.70;;;19.40;99.90;;;;;;5549648;25;20027;-48
2024/04/13 09:07:21;;;;;;;8.10;6.65;;;19.60;99.90;;;;;;5522475;25;20065;-48
2024/04/13 09:09:53;;;;;;;;;;;19.70;99.90;;;;;;5548476;25;20453;-48
2024/04/13 09:12:20;;;;;;;8.38;6.70;;;19.70;99.90;;;;;;5557886;25;19947;-49
2024/04/13 09:14:47;;;;;;;7.80;6.50;;;19.80;99.90;;;;;;5559060;25;20016;-48
2024/04/13 09:17:14;;;;;;;9.38;6.80;;;19.70;99.90;;;;;;5550231;25;20125;-51
2024/04/13 09:19:44;;;;;;;7.05;6.35;;;19.80;99.90;;;;;;5546025;25;20011;-50
2024/04/13 09:22:11;;;;;;;9.68;6.68;;;19.80;99.90;;;;;;5536530;25;20309;-49
2024/04/13 09:24:39;;;;;;;7.60;6.05;;;19.90;99.90;;;;;;5556293;25;20000;-52
2024/04/13 09:27:14;;;;;;;7.40;6.47;;;20.10;99.90;;;;;;5511102;25;20012;-47
2024/04/13 09:29:41;;;;;;;8.70;6.13;;;19.80;99.90;;;;;;5547301;25;19997;-46
2024/04/13 09:32:08;;;;;;;10.30;6.97;;;20.00;99.90;;;;;;5556828;25;20016;-50
2024/04/13 09:34:35;;;;;;;6.32;5.72;;;20.20;99.90;;;;;;5535263;25;20081;-46
2024/04/13 09:37:07;;;;;;;7.00;5.93;;;20.40;99.90;;;;;;5545737;25;20072;-48
2024/04/13 09:39:34;;;;;;;7.53;6.15;;;20.40;99.90;;;;;;5543342;25;20558;-49
2024/04/13 09:42:11;;;;;;;8.88;6.80;;;20.30;99.90;;;;;;5545838;25;20108;-46
2024/04/13 09:44:40;;;;;;;6.47;5.82;;;20.40;99.90;;;;;;5553157;25;20008;-45
2024/04/13 09:47:07;;;;;;;7.72;6.10;;;20.50;99.90;;;;;;5541182;25;20005;-48
2024/04/13 09:49:34;;;;;;;7.47;5.80;;;20.50;99.90;;;;;;5552275;25;19996;-44
2024/04/13 09:52:01;;;;;;;11.45;6.47;;;20.50;99.90;;;;;;5553470;25;19997;-51
2024/04/13 09:54:29;;;;;;;11.23;6.70;;;20.50;99.90;;;;;;5546427;25;20031;-48
2024/04/13 09:56:58;;;;;;;9.05;7.05;;;20.70;99.90;;;;;;5560797;25;20016;-46
2024/04/13 09:59:29;;;;;;;12.40;8.93;;;20.90;99.90;;;;;;5545577;25;20008;-48
2024/04/13 10:01:57;;;;;;;10.38;6.72;;;21.20;99.90;;;;;;5560672;25;21410;-43
2024/04/13 10:04:24;;;;;;;8.50;7.50;;;21.30;99.90;;;;;;5538444;25;20430;-49
2024/04/13 10:06:54;;;;;;;9.30;6.63;;;21.20;99.90;;;;;;5531273;25;20008;-50
2024/04/13 10:09:26;;;;;;;11.18;7.28;;;21.50;99.90;;;;;;5550675;25;19993;-50
2024/04/13 10:11:56;;;;;;;7.50;6.80;;;21.30;99.90;;;;;;5548955;25;20000;-48
2024/04/13 10:14:25;;;;;;;8.60;7.70;;;21.50;99.90;;;;;;5551573;25;20012;-51
2024/04/13 10:16:54;;;;;;;9.88;7.60;;;21.40;99.90;;;;;;5534063;25;20802;-51
2024/04/13 10:19:22;;;;;;;16.95;7.75;;;21.10;99.90;;;;;;5551414;25;20001;-49
2024/04/13 10:21:56;;;;;;;9.15;6.70;;;21.40;99.90;;;;;;5541712;25;20001;-50
2024/04/13 10:24:23;;;;;;;8.15;7.03;;;21.50;99.90;;;;;;5544912;25;20020;-49
2024/04/13 10:26:51;;;;;;;7.38;6.68;;;21.80;99.90;;;;;;5537749;25;20058;-50
2024/04/13 10:29:27;;;;;;;8.02;6.60;;;21.80;99.90;;;;;;5551918;25;20073;-51
2024/04/13 10:31:55;;;;;;;7.82;7.05;;;22.30;99.90;;;;;;5546169;25;19997;-45
2024/04/13 10:34:25;;;;;;;7.90;6.95;;;22.10;99.90;;;;;;5514853;25;20019;-51
2024/04/13 10:36:59;;;;;;;8.48;7.13;;;22.20;99.90;;;;;;5556923;25;20001;-54
2024/04/13 10:39:26;;;;;;;11.27;7.78;;;22.50;99.90;;;;;;5547700;25;20441;-50
2024/04/13 10:41:53;;;;;;;9.48;7.63;;;22.60;99.90;;;;;;5546885;25;20315;-46
2024/04/13 10:44:29;;;;;;;12.57;7.63;;;22.90;99.90;;;;;;5537687;25;20011;-44
2024/04/13 10:46:58;;;;;;;7.50;6.72;;;22.70;99.90;;;;;;5542170;25;20431;-49
2024/04/13 10:49:27;;;;;;;8.55;7.65;;;22.60;99.90;;;;;;5557015;25;20004;-51
2024/04/13 10:51:54;;;;;;;8.77;7.20;;;23.00;99.90;;;;;;5555426;25;20309;-45
2024/04/13 10:54:21;;;;;;;10.43;6.63;;;23.20;99.90;;;;;;5543398;25;20033;-49
2024/04/13 10:56:48;;;;;;;8.38;6.63;;;23.60;99.90;;;;;;5555535;25;20011;-50
2024/04/13 10:59:24;;;;;;;9.32;6.53;;;24.10;99.90;;;;;;5546737;25;20498;-49
2024/04/13 11:01:52;;;;;;;8.50;6.60;;;24.40;99.90;;;;;;5539043;25;20045;-49
2024/04/13 11:04:19;;;;;;;7.40;6.57;;;24.40;99.90;;;;;;5513265;25;20533;-50
2024/04/13 11:06:46;;;;;;;8.10;6.75;;;24.60;99.90;;;;;;5547165;25;20637;-49
2024/04/13 11:09:14;;;;;;;10.75;8.13;;;24.90;99.90;;;;;;5545671;25;20024;-52
2024/04/13 11:11:41;;;;;;;6.88;5.93;;;24.90;99.90;;;;;;5561789;25;20043;-52
2024/04/13 11:14:08;;;;;;;8.18;6.55;;;24.70;99.90;;;;;;5539770;25;20001;-49
2024/04/13 11:16:41;;;;;;;6.03;5.43;;;25.00;99.90;;;;;;5558376;25;20359;-47
2024/04/13 11:19:08;;;;;;;8.13;6.32;;;25.60;99.90;;;;;;5555724;25;20461;-47
2024/04/13 11:21:37;;;;;;;7.28;5.68;;;26.10;99.90;;;;;;5557889;25;20011;-48
2024/04/13 11:24:08;;;;;;;9.38;5.45;;;25.80;99.90;;;;;;5555079;25;20303;-51
2024/04/13 11:26:35;;;;;;;6.63;5.50;;;25.50;99.90;;;;;;5542016;25;19997;-46
2024/04/13 11:29:02;;;;;;;7.20;6.00;;;25.90;99.90;;;;;;5556293;25;20287;-52
2024/04/13 11:31:29;;;;;;;7.45;6.10;;;26.00;99.90;;;;;;5550193;25;20008;-47
2024/04/13 11:33:56;;;;;;;6.25;5.65;;;26.30;99.90;;;;;;5548676;25;20029;-48
2024/04/13 11:36:23;;;;;;;9.48;5.75;;;26.30;99.90;;;;;;5544976;25;20001;-46
2024/04/13 11:38:52;;;;;;;10.68;6.38;;;26.70;99.90;;;;;;5546120;25;20002;-50
2024/04/13 11:41:20;;;;;;;8.65;6.80;;;27.10;98.80;;;;;;5554739;25;20056;-48
2024/04/13 11:43:54;;;;;;;6.05;5.45;;;27.10;97.70;;;;;;5550527;25;20014;-47
2024/04/13 11:46:21;;;;;;;5.75;5.15;;;27.60;95.70;;;;;;5541714;25;20561;-45
2024/04/13 11:48:50;;;;;;;5.97;5.20;;;27.10;94.80;;;;;;5543501;25;20016;-47
2024/04/13 11:51:19;;;;;;;8.32;5.20;;;27.60;94.10;;;;;;5556447;25;20371;-44
2024/04/13 11:53:46;;;;;;;7.88;5.32;;;27.60;93.30;;;;;;5553896;25;20004;-49
2024/04/13 11:56:17;;;;;;;6.57;5.55;;;27.10;93.60;;;;;;5519828;25;20002;-46
2024/04/13 11:58:49;;;;;;;6.30;5.70;;;27.30;93.40;;;;;;5553493;25;20037;-54
2024/04/13 12:01:16;;;;;;;6.35;5.30;;;27.00;92.80;;;;;;5543922;25;20342;-50
2024/04/13 12:03:43;;;;;;;14.63;9.20;;;26.00;94.10;;;;;;5552845;25;20010;-50
2024/04/13 12:06:10;;;;;;;9.35;5.75;;;26.50;93.60;;;;;;5554200;25;20896;-47
2024/04/13 12:08:37;;;;;;;6.60;5.18;;;26.70;93.10;;;;;;5534283;25;20054;-49
2024/04/13 12:11:05;;;;;;;6.78;5.30;;;26.90;92.90;;;;;;5515903;25;20005;-45
2024/04/13 12:13:31;;;;;;;6.82;5.50;;;26.80;92.50;;;;;;5548286;25;20309;-49
2024/04/13 12:15:58;;;;;;;6.43;5.30;;;26.80;91.70;;;;;;5546426;25;19997;-48
2024/04/13 12:18:26;;;;;;;7.78;4.85;;;26.60;91.10;;;;;;5556334;25;20004;-44
2024/04/13 12:20:53;;;;;;;6.32;5.00;;;26.50;91.60;;;;;;5549985;25;20362;-46
2024/04/13 12:23:20;;;;;;;8.63;4.88;;;26.60;91.40;;;;;;5558634;25;19997;-48
2024/04/13 12:25:47;;;;;;;7.95;5.20;;;26.70;91.50;;;;;;5550854;25;20077;-44
2024/04/13 12:28:14;;;;;;;6.85;4.90;;;26.90;91.50;;;;;;5557880;25;20004;-49
2024/04/13 12:30:42;;;;;;;7.13;4.53;;;26.80;90.80;;;;;;5548789;25;20029;-52
2024/04/13 12:33:09;;;;;;;5.80;4.55;;;27.00;91.20;;;;;;5558576;25;19997;-47
2024/04/13 12:35:37;;;;;;;8.35;4.85;;;27.80;90.20;;;;;;5543932;25;20503;-45
2024/04/13 12:38:04;;;;;;;5.78;5.00;;;28.10;89.40;;;;;;5552657;25;19993;-48
2024/04/13 12:40:31;;;;;;;6.63;4.68;;;28.30;88.20;;;;;;5549403;25;20010;-48
2024/04/13 12:42:58;;;;;;;8.73;5.00;;;28.30;86.90;;;;;;5539880;25;20519;-46
2024/04/13 12:45:26;;;;;;;6.57;4.57;;;28.10;87.00;;;;;;5554791;25;24442;-45
2024/04/13 12:47:53;;;;;;;5.57;4.80;;;28.30;87.50;;;;;;5545912;25;19996;-47